createdAt,value
2023-04-05T00:00:23.464Z,79.40
2023-04-05T00:02:50.458Z,78.80
2023-04-05T00:05:29.289Z,78.80
2023-04-05T00:07:59.333Z,79.10
2023-04-05T00:10:27.260Z,79.60
2023-04-05T00:12:54.212Z,79.50
2023-04-05T00:15:22.137Z,79.50
2023-04-05T00:17:49.132Z,79.50
2023-04-05T00:20:16.198Z,79.70
2023-04-05T00:22:44.644Z,80.00
2023-04-05T00:25:11.544Z,79.90
2023-04-05T00:27:39.106Z,79.80
2023-04-05T00:30:06.782Z,80.00
2023-04-05T00:32:33.731Z,80.20
2023-04-05T00:35:00.871Z,80.30
2023-04-05T00:37:27.925Z,80.50
2023-04-05T00:39:55.155Z,80.60
2023-04-05T00:42:22.045Z,80.50
2023-04-05T00:44:49.022Z,80.60
2023-04-05T00:47:15.983Z,80.50
2023-04-05T00:49:42.972Z,80.60
2023-04-05T00:52:09.948Z,80.60
2023-04-05T00:54:39.108Z,80.80
2023-04-05T00:57:07.118Z,80.70
2023-04-05T00:59:34.248Z,80.80
2023-04-05T01:02:13.459Z,80.70
2023-04-05T01:04:50.199Z,80.90
2023-04-05T01:07:30.824Z,81.10
2023-04-05T01:10:00.185Z,81.00
2023-04-05T01:12:33.065Z,80.70
2023-04-05T01:15:01.246Z,81.10
2023-04-05T01:17:36.629Z,81.00
2023-04-05T01:20:11.741Z,81.00
2023-04-05T01:23:06.486Z,81.00
2023-04-05T01:26:13.991Z,81.10
2023-04-05T01:29:09.750Z,80.90
2023-04-05T01:31:46.961Z,80.70
2023-04-05T01:34:41.357Z,80.70
2023-04-05T01:37:13.466Z,80.80
2023-04-05T01:39:41.234Z,80.40
2023-04-05T01:42:08.541Z,80.50
2023-04-05T01:44:35.477Z,80.60
2023-04-05T01:47:02.373Z,80.60
2023-04-05T01:49:29.296Z,80.40
2023-04-05T01:51:56.302Z,80.50
2023-04-05T01:54:23.212Z,80.30
2023-04-05T01:56:50.710Z,80.20
2023-04-05T01:59:19.183Z,80.30
2023-04-05T02:01:46.106Z,80.20
2023-04-05T02:04:12.999Z,80.40
2023-04-05T02:06:41.177Z,80.20
2023-04-05T02:09:08.746Z,80.20
2023-04-05T02:11:35.830Z,80.20
2023-04-05T02:14:02.793Z,80.20
2023-04-05T02:16:33.417Z,80.30
2023-04-05T02:19:00.668Z,80.20
2023-04-05T02:21:27.701Z,80.20
2023-04-05T02:23:55.026Z,80.30
2023-04-05T02:26:21.965Z,80.40
2023-04-05T02:28:48.857Z,80.20
2023-04-05T02:31:16.307Z,80.60
2023-04-05T02:33:43.289Z,80.80
2023-04-05T02:36:13.310Z,80.90
2023-04-05T02:38:40.815Z,81.10
2023-04-05T02:41:14.358Z,81.20
2023-04-05T02:43:41.352Z,81.40
2023-04-05T02:46:08.293Z,81.40
2023-04-05T02:48:39.484Z,81.40
2023-04-05T02:51:07.063Z,81.40
2023-04-05T02:53:34.643Z,81.50
2023-04-05T02:56:06.000Z,81.40
2023-04-05T02:58:35.971Z,81.40
2023-04-05T03:01:06.014Z,81.40
2023-04-05T03:03:37.500Z,81.40
2023-04-05T03:06:13.435Z,81.20
2023-04-05T03:08:49.193Z,81.20
2023-04-05T03:11:20.898Z,81.20
2023-04-05T03:13:51.693Z,80.90
2023-04-05T03:16:34.759Z,80.90
2023-04-05T03:19:09.137Z,81.10
2023-04-05T03:21:41.098Z,81.20
2023-04-05T03:24:22.250Z,81.30
2023-04-05T03:26:49.795Z,81.20
2023-04-05T03:29:20.174Z,81.10
2023-04-05T03:31:49.909Z,81.10
2023-04-05T03:34:19.518Z,81.50
2023-04-05T03:36:48.123Z,81.40
2023-04-05T03:39:30.213Z,81.40
2023-04-05T03:41:57.095Z,81.30
2023-04-05T03:44:24.010Z,81.30
2023-04-05T03:46:50.923Z,81.30
2023-04-05T03:49:17.866Z,81.10
2023-04-05T03:51:44.776Z,81.20
2023-04-05T03:54:11.789Z,81.10
2023-04-05T03:56:39.339Z,81.10
2023-04-05T03:59:13.571Z,81.10
2023-04-05T04:01:41.039Z,81.10
2023-04-05T04:04:08.130Z,81.30
2023-04-05T04:06:35.123Z,81.10
2023-04-05T04:09:02.877Z,81.40
2023-04-05T04:11:31.157Z,81.90
2023-04-05T04:14:01.667Z,82.00
2023-04-05T04:17:06.771Z,82.20
2023-04-05T04:19:49.849Z,82.40
2023-04-05T04:22:38.815Z,82.50
2023-04-05T04:25:20.259Z,82.70
2023-04-05T04:28:07.956Z,82.90
2023-04-05T04:31:04.876Z,83.00
2023-04-05T04:33:51.047Z,83.10
2023-04-05T04:37:01.160Z,83.10
2023-04-05T04:39:45.089Z,83.10
2023-04-05T04:42:33.742Z,83.20
2023-04-05T04:45:20.082Z,83.10
2023-04-05T04:48:16.383Z,83.10
2023-04-05T04:50:57.372Z,83.40
2023-04-05T04:53:24.492Z,83.40
2023-04-05T04:55:51.359Z,83.50
2023-04-05T04:58:18.297Z,83.30
2023-04-05T05:00:53.050Z,83.00
2023-04-05T05:03:19.960Z,83.00
2023-04-05T05:05:50.223Z,83.10
2023-04-05T05:08:21.940Z,82.90
2023-04-05T05:10:54.845Z,82.70
2023-04-05T05:13:21.740Z,82.80
2023-04-05T05:15:48.633Z,82.70
2023-04-05T05:18:16.165Z,82.70
2023-04-05T05:20:43.454Z,82.80
2023-04-05T05:23:10.541Z,82.70
2023-04-05T05:25:38.467Z,82.80
2023-04-05T05:28:05.734Z,82.90
2023-04-05T05:30:33.518Z,83.00
2023-04-05T05:33:01.258Z,83.50
2023-04-05T05:35:28.304Z,83.50
2023-04-05T05:37:55.475Z,83.90
2023-04-05T05:40:22.374Z,83.90
2023-04-05T05:42:49.642Z,83.80
2023-04-05T05:45:16.575Z,84.00
2023-04-05T05:47:43.515Z,84.60
2023-04-05T05:50:10.949Z,84.70
2023-04-05T05:52:38.830Z,84.90
2023-04-05T05:55:06.179Z,85.50
2023-04-05T05:57:33.035Z,85.80
2023-04-05T05:59:59.879Z,86.10
2023-04-05T06:02:27.478Z,86.20
2023-04-05T06:04:55.318Z,86.40
2023-04-05T06:07:22.577Z,86.40
2023-04-05T06:09:49.448Z,86.30
2023-04-05T06:12:16.300Z,85.90
2023-04-05T06:14:43.142Z,85.80
2023-04-05T06:17:10.001Z,86.80
2023-04-05T06:19:36.896Z,86.60
2023-04-05T06:22:03.905Z,87.80
2023-04-05T06:24:32.041Z,87.80
2023-04-05T06:26:59.359Z,87.80
2023-04-05T06:29:26.307Z,87.70
2023-04-05T06:31:54.249Z,88.00
2023-04-05T06:34:21.237Z,88.50
2023-04-05T06:36:48.195Z,88.80
2023-04-05T06:39:15.117Z,89.20
2023-04-05T06:41:42.087Z,88.80
2023-04-05T06:44:09.306Z,89.20
2023-04-05T06:46:36.210Z,90.10
2023-04-05T06:49:04.158Z,89.30
2023-04-05T06:51:31.742Z,89.90
2023-04-05T06:53:58.819Z,90.60
2023-04-05T06:56:25.854Z,90.70
2023-04-05T06:58:53.083Z,90.30
2023-04-05T07:01:20.204Z,90.40
2023-04-05T07:03:47.169Z,91.30
2023-04-05T07:06:14.304Z,91.40
2023-04-05T07:08:41.181Z,91.80
2023-04-05T07:11:08.229Z,92.00
2023-04-05T07:13:35.100Z,92.20
2023-04-05T07:16:03.329Z,92.40
2023-04-05T07:18:30.658Z,92.50
2023-04-05T07:21:03.724Z,92.50
2023-04-05T07:23:31.169Z,92.50
2023-04-05T07:26:04.659Z,92.80
2023-04-05T07:28:33.445Z,92.80
2023-04-05T07:31:00.371Z,92.70
2023-04-05T07:33:27.773Z,92.80
2023-04-05T07:35:57.969Z,92.90
2023-04-05T07:38:26.049Z,92.70
2023-04-05T07:40:53.004Z,92.70
2023-04-05T07:43:20.145Z,92.70
2023-04-05T07:45:47.053Z,92.80
2023-04-05T07:48:13.939Z,92.80
2023-04-05T07:50:42.583Z,92.70
2023-04-05T07:53:09.711Z,92.50
2023-04-05T07:55:39.051Z,92.50
2023-04-05T07:58:05.922Z,92.50
2023-04-05T08:00:32.807Z,92.60
2023-04-05T08:03:02.044Z,92.60
2023-04-05T08:05:29.633Z,92.40
2023-04-05T08:07:58.132Z,92.00
2023-04-05T08:10:25.635Z,91.80
2023-04-05T08:12:53.146Z,91.50
2023-04-05T08:15:20.099Z,91.60
2023-04-05T08:17:47.067Z,91.50
2023-04-05T08:20:14.041Z,91.70
2023-04-05T08:22:40.935Z,91.80
2023-04-05T08:25:08.782Z,91.60
2023-04-05T08:27:35.705Z,91.70
2023-04-05T08:30:02.610Z,91.30
2023-04-05T08:32:29.598Z,91.10
2023-04-05T08:34:56.532Z,90.90
2023-04-05T08:37:23.413Z,91.00
2023-04-05T08:39:50.384Z,90.50
2023-04-05T08:42:19.346Z,90.40
2023-04-05T08:44:51.703Z,90.30
2023-04-05T08:47:23.940Z,90.10
2023-04-05T08:49:50.918Z,90.10
2023-04-05T08:52:18.571Z,90.20
2023-04-05T08:54:45.692Z,90.10
2023-04-05T08:57:13.425Z,90.00
2023-04-05T08:59:43.972Z,90.20
2023-04-05T09:02:19.636Z,90.00
2023-04-05T09:04:48.748Z,89.80
2023-04-05T09:07:16.569Z,89.50
2023-04-05T09:09:49.551Z,89.00
2023-04-05T09:12:16.803Z,89.30
2023-04-05T09:14:43.903Z,89.60
2023-04-05T09:17:11.691Z,89.50
2023-04-05T09:19:39.052Z,89.30
2023-04-05T09:22:08.639Z,88.70
2023-04-05T09:24:42.728Z,88.30
2023-04-05T09:27:18.491Z,88.00
2023-04-05T09:29:50.524Z,87.70
2023-04-05T09:32:19.232Z,88.10
2023-04-05T09:34:46.226Z,87.60
2023-04-05T09:37:22.300Z,87.50
2023-04-05T09:39:51.978Z,86.70
2023-04-05T09:42:22.946Z,85.70
2023-04-05T09:45:02.663Z,85.00
2023-04-05T09:47:35.081Z,84.70
2023-04-05T09:50:19.570Z,85.10
2023-04-05T09:52:47.040Z,84.60
2023-04-05T09:55:14.377Z,83.80
2023-04-05T09:57:43.835Z,84.30
2023-04-05T10:00:31.306Z,83.20
2023-04-05T10:02:58.416Z,80.90
2023-04-05T10:05:29.245Z,81.60
2023-04-05T10:07:56.427Z,81.80
2023-04-05T10:10:24.741Z,81.10
2023-04-05T10:12:53.546Z,81.40
2023-04-05T10:15:20.517Z,81.40
2023-04-05T10:17:53.297Z,81.90
2023-04-05T10:20:22.374Z,82.50
2023-04-05T10:22:57.568Z,82.80
2023-04-05T10:25:54.216Z,83.00
2023-04-05T10:28:32.736Z,82.70
2023-04-05T10:31:37.256Z,82.60
2023-04-05T10:34:07.766Z,82.80
2023-04-05T10:36:59.107Z,81.60
2023-04-05T10:39:42.883Z,80.50
2023-04-05T10:42:28.229Z,81.40
2023-04-05T10:45:04.608Z,81.60
2023-04-05T10:47:37.229Z,81.80
2023-04-05T10:50:09.239Z,81.80
2023-04-05T10:52:37.267Z,81.80
2023-04-05T10:55:05.501Z,80.70
2023-04-05T10:57:33.297Z,80.20
2023-04-05T11:00:01.426Z,79.70
2023-04-05T11:02:30.210Z,77.90
2023-04-05T11:04:57.376Z,77.60
2023-04-05T11:07:24.432Z,76.80
2023-04-05T11:10:02.587Z,75.70
2023-04-05T11:12:53.431Z,75.20
2023-04-05T11:15:28.868Z,76.00
2023-04-05T11:18:17.667Z,76.40
2023-04-05T11:20:57.792Z,76.70
2023-04-05T11:23:25.531Z,75.60
2023-04-05T11:26:06.612Z,75.30
2023-04-05T11:28:40.465Z,74.70
2023-04-05T11:31:19.632Z,74.00
2023-04-05T11:33:59.700Z,73.60
2023-04-05T11:36:36.836Z,72.60
2023-04-05T11:39:19.031Z,72.50
2023-04-05T11:42:02.144Z,72.80
2023-04-05T11:44:46.930Z,73.70
2023-04-05T11:47:17.084Z,73.70
2023-04-05T11:49:47.191Z,72.30
2023-04-05T11:52:16.851Z,72.10
2023-04-05T11:54:49.099Z,72.00
2023-04-05T11:57:21.390Z,72.70
2023-04-05T11:59:51.954Z,72.10
2023-04-05T12:02:19.915Z,72.50
2023-04-05T12:04:58.042Z,72.00
2023-04-05T12:07:29.394Z,71.50
2023-04-05T12:10:11.916Z,71.90
2023-04-05T12:12:43.807Z,71.40
2023-04-05T12:15:14.498Z,71.40
2023-04-05T12:17:51.866Z,72.20
2023-04-05T12:20:26.119Z,71.30
2023-04-05T12:22:55.597Z,72.50
2023-04-05T12:25:24.233Z,71.60
2023-04-05T12:27:51.214Z,71.00
2023-04-05T12:30:21.476Z,71.10
2023-04-05T12:32:53.983Z,70.50
2023-04-05T12:35:32.652Z,70.00
2023-04-05T12:38:01.601Z,69.80
2023-04-05T12:40:40.626Z,69.30
2023-04-05T12:43:09.406Z,70.00
2023-04-05T12:45:40.552Z,69.90
2023-04-05T12:48:20.093Z,69.40
2023-04-05T12:50:48.919Z,68.90
2023-04-05T12:53:21.511Z,68.60
2023-04-05T12:55:53.759Z,68.80
2023-04-05T12:58:22.824Z,68.60
2023-04-05T13:00:49.741Z,69.20
2023-04-05T13:03:20.559Z,69.20
2023-04-05T13:05:51.409Z,67.90
2023-04-05T13:08:18.669Z,68.80
2023-04-05T13:10:47.540Z,68.80
2023-04-05T13:13:18.521Z,69.10
2023-04-05T13:15:45.733Z,68.70
2023-04-05T13:18:16.301Z,69.50
2023-04-05T13:20:43.656Z,69.70
2023-04-05T13:23:12.105Z,69.40
2023-04-05T13:25:40.872Z,69.80
2023-04-05T13:28:08.399Z,69.70
2023-04-05T13:30:35.373Z,69.60
2023-04-05T13:33:04.435Z,68.90
2023-04-05T13:35:31.936Z,69.10
2023-04-05T13:38:00.061Z,69.60
2023-04-05T13:40:28.054Z,69.70
2023-04-05T13:42:54.926Z,70.10
2023-04-05T13:45:21.806Z,70.50
2023-04-05T13:47:48.743Z,71.00
2023-04-05T13:50:15.806Z,71.50
2023-04-05T13:52:42.716Z,72.00
2023-04-05T13:55:09.671Z,72.10
2023-04-05T13:57:36.532Z,73.50
2023-04-05T14:00:03.815Z,73.30
2023-04-05T14:02:39.110Z,74.10
2023-04-05T14:05:07.758Z,74.70
2023-04-05T14:07:35.206Z,75.30
2023-04-05T14:10:02.127Z,75.50
2023-04-05T14:12:29.791Z,75.90
2023-04-05T14:14:56.694Z,76.60
2023-04-05T14:17:23.607Z,76.50
2023-04-05T14:19:50.597Z,76.80
2023-04-05T14:22:17.529Z,77.80
2023-04-05T14:24:44.429Z,76.90
2023-04-05T14:27:11.331Z,77.10
2023-04-05T14:29:38.482Z,77.80
2023-04-05T14:32:05.718Z,78.20
2023-04-05T14:34:33.761Z,78.00
2023-04-05T14:37:02.983Z,77.70
2023-04-05T14:39:29.927Z,77.60
2023-04-05T14:41:57.567Z,77.00
2023-04-05T14:44:25.804Z,77.70
2023-04-05T14:46:52.714Z,77.60
2023-04-05T14:49:19.609Z,78.10
2023-04-05T14:51:47.470Z,77.90
2023-04-05T14:54:14.399Z,78.20
2023-04-05T14:56:41.291Z,79.00
2023-04-05T14:59:08.251Z,78.50
2023-04-05T15:01:35.406Z,80.00
2023-04-05T15:04:02.437Z,79.10
2023-04-05T15:06:29.373Z,78.90
2023-04-05T15:08:56.356Z,80.40
2023-04-05T15:11:23.244Z,80.80
2023-04-05T15:13:50.142Z,81.50
2023-04-05T15:16:17.059Z,81.90
2023-04-05T15:18:43.994Z,83.00
2023-04-05T15:21:11.073Z,83.00
2023-04-05T15:23:38.055Z,82.80
2023-04-05T15:26:04.936Z,82.70
2023-04-05T15:28:31.823Z,83.00
2023-04-05T15:30:58.824Z,82.60
2023-04-05T15:33:25.748Z,82.50
2023-04-05T15:35:52.671Z,83.20
2023-04-05T15:38:19.617Z,82.50
2023-04-05T15:40:49.620Z,82.70
2023-04-05T15:43:16.584Z,82.70
2023-04-05T15:45:43.464Z,83.80
2023-04-05T15:48:10.427Z,83.80
2023-04-05T15:50:37.313Z,84.20
2023-04-05T15:53:04.195Z,84.60
2023-04-05T15:55:31.113Z,83.60
2023-04-05T15:57:58.008Z,82.90
2023-04-05T16:00:26.057Z,83.10
2023-04-05T16:02:55.600Z,83.30
2023-04-05T16:05:23.081Z,83.50
2023-04-05T16:07:50.030Z,83.50
2023-04-05T16:10:17.010Z,83.30
2023-04-05T16:12:43.948Z,83.00
2023-04-05T16:15:11.109Z,82.70
2023-04-05T16:17:38.361Z,82.80
2023-04-05T16:20:06.484Z,83.30
2023-04-05T16:22:33.391Z,83.20
2023-04-05T16:25:00.698Z,83.40
2023-04-05T16:27:27.610Z,83.40
2023-04-05T16:29:54.583Z,82.80
2023-04-05T16:32:21.746Z,82.60
2023-04-05T16:34:48.748Z,82.70
2023-04-05T16:37:15.638Z,82.90
2023-04-05T16:39:42.546Z,83.00
2023-04-05T16:42:09.668Z,83.10
2023-04-05T16:44:36.568Z,83.00
2023-04-05T16:47:03.473Z,82.90
2023-04-05T16:49:30.478Z,82.80
2023-04-05T16:51:57.504Z,83.30
2023-04-05T16:54:24.575Z,83.50
2023-04-05T16:56:51.723Z,83.80
2023-04-05T16:59:18.668Z,83.70
2023-04-05T17:01:46.262Z,83.30
2023-04-05T17:04:13.229Z,83.10
2023-04-05T17:06:40.128Z,82.40
2023-04-05T17:09:07.090Z,82.30
2023-04-05T17:11:34.092Z,82.60
2023-04-05T17:14:01.174Z,82.30
2023-04-05T17:16:28.121Z,82.00
2023-04-05T17:18:55.081Z,81.90
2023-04-05T17:21:22.825Z,82.20
2023-04-05T17:23:49.728Z,82.20
2023-04-05T17:26:16.666Z,82.10
2023-04-05T17:28:43.589Z,82.20
2023-04-05T17:31:11.331Z,82.60
2023-04-05T17:33:38.310Z,82.80
2023-04-05T17:36:05.304Z,82.80
2023-04-05T17:38:32.227Z,83.40
2023-04-05T17:40:59.493Z,83.50
2023-04-05T17:43:26.774Z,83.50
2023-04-05T17:45:54.547Z,84.00
2023-04-05T17:48:21.728Z,84.10
2023-04-05T17:50:48.736Z,84.10
2023-04-05T17:53:18.774Z,84.30
2023-04-05T17:55:45.701Z,84.50
2023-04-05T17:58:12.582Z,84.60
2023-04-05T18:00:39.484Z,84.90
2023-04-05T18:03:08.457Z,84.80
2023-04-05T18:05:35.699Z,84.40
2023-04-05T18:08:02.605Z,84.90
2023-04-05T18:10:29.507Z,84.60
2023-04-05T18:12:56.437Z,85.40
2023-04-05T18:15:23.408Z,85.30
2023-04-05T18:17:50.885Z,85.40
2023-04-05T18:20:17.981Z,85.20
2023-04-05T18:22:45.112Z,85.60
2023-04-05T18:25:12.929Z,86.10
2023-04-05T18:27:42.352Z,86.40
2023-04-05T18:30:11.022Z,86.70
2023-04-05T18:32:40.972Z,86.90
2023-04-05T18:35:09.654Z,87.20
2023-04-05T18:37:36.972Z,87.20
2023-04-05T18:40:05.099Z,87.20
2023-04-05T18:42:32.787Z,87.20
2023-04-05T18:45:01.025Z,87.10
2023-04-05T18:47:28.499Z,87.40
2023-04-05T18:49:55.487Z,87.50
2023-04-05T18:52:25.843Z,87.80
2023-04-05T18:54:53.505Z,87.80
2023-04-05T18:57:20.694Z,87.70
2023-04-05T18:59:47.687Z,88.10
2023-04-05T19:02:14.678Z,87.80
2023-04-05T19:04:41.631Z,87.60
2023-04-05T19:07:08.540Z,87.50
2023-04-05T19:09:35.628Z,88.20
2023-04-05T19:12:02.545Z,88.30
2023-04-05T19:14:29.517Z,88.60
2023-04-05T19:16:56.484Z,88.40
2023-04-05T19:19:23.375Z,88.80
2023-04-05T19:21:50.348Z,88.80
2023-04-05T19:24:17.286Z,88.80
2023-04-05T19:26:44.861Z,88.50
2023-04-05T19:29:14.699Z,89.20
2023-04-05T19:31:41.696Z,88.80
2023-04-05T19:34:08.772Z,88.50
2023-04-05T19:36:36.926Z,89.00
2023-04-05T19:39:05.463Z,89.00
2023-04-05T19:41:33.127Z,89.10
2023-04-05T19:44:00.692Z,89.20
2023-04-05T19:46:33.708Z,89.30
2023-04-05T19:49:10.981Z,89.70
2023-04-05T19:51:38.305Z,89.70
2023-04-05T19:54:14.942Z,89.40
2023-04-05T19:56:43.076Z,89.80
2023-04-05T19:59:12.635Z,89.70
2023-04-05T20:01:41.078Z,89.80
2023-04-05T20:04:19.322Z,89.60
2023-04-05T20:06:53.062Z,89.70
2023-04-05T20:09:29.245Z,89.90
2023-04-05T20:12:01.947Z,90.00
2023-04-05T20:14:45.859Z,89.90
2023-04-05T20:17:13.257Z,89.80
2023-04-05T20:19:41.755Z,89.80
2023-04-05T20:22:09.863Z,89.90
2023-04-05T20:24:39.473Z,90.00
2023-04-05T20:27:06.521Z,90.00
2023-04-05T20:29:33.653Z,90.00
2023-04-05T20:32:01.796Z,90.00
2023-04-05T20:34:32.599Z,90.00
2023-04-05T20:37:04.008Z,90.00
2023-04-05T20:39:31.365Z,89.70
2023-04-05T20:41:59.383Z,89.60
2023-04-05T20:44:26.604Z,89.80
2023-04-05T20:46:56.332Z,89.70
2023-04-05T20:49:26.098Z,89.90
2023-04-05T20:51:57.242Z,90.00
2023-04-05T20:54:24.327Z,90.00
2023-04-05T20:56:51.303Z,90.00
2023-04-05T20:59:18.248Z,90.00
2023-04-05T21:01:47.222Z,90.10
2023-04-05T21:04:14.532Z,90.10
2023-04-05T21:06:41.658Z,90.10
2023-04-05T21:09:08.862Z,90.10
2023-04-05T21:11:36.065Z,90.10
2023-04-05T21:14:03.031Z,90.30
2023-04-05T21:16:30.467Z,90.40
2023-04-05T21:18:57.438Z,90.30
2023-04-05T21:21:24.348Z,90.40
2023-04-05T21:23:51.233Z,90.30
2023-04-05T21:26:18.149Z,90.30
2023-04-05T21:28:45.024Z,90.60
2023-04-05T21:31:11.957Z,90.40
2023-04-05T21:33:38.957Z,90.50
2023-04-05T21:36:06.368Z,90.70
2023-04-05T21:38:33.274Z,90.80
2023-04-05T21:41:00.151Z,90.80
2023-04-05T21:43:27.028Z,90.70
2023-04-05T21:45:53.958Z,90.80
2023-04-05T21:48:21.190Z,90.90
2023-04-05T21:50:48.106Z,91.00
2023-04-05T21:53:15.110Z,90.90
2023-04-05T21:55:42.024Z,90.90
2023-04-05T21:58:08.974Z,90.80
2023-04-05T22:00:36.158Z,90.90
2023-04-05T22:03:03.056Z,90.80
2023-04-05T22:05:37.911Z,90.80
2023-04-05T22:08:07.278Z,90.80
2023-04-05T22:10:35.540Z,90.80
2023-04-05T22:13:02.419Z,90.80
2023-04-05T22:15:29.384Z,90.80
2023-04-05T22:17:56.275Z,90.80
2023-04-05T22:20:23.204Z,90.90
2023-04-05T22:22:50.097Z,90.90
2023-04-05T22:25:17.022Z,91.00
2023-04-05T22:27:43.937Z,90.90
2023-04-05T22:30:11.440Z,90.90
2023-04-05T22:32:38.372Z,91.00
2023-04-05T22:35:05.858Z,91.00
2023-04-05T22:37:35.944Z,91.00
2023-04-05T22:40:04.833Z,91.00
2023-04-05T22:42:31.902Z,91.00
2023-04-05T22:44:58.827Z,91.00
2023-04-05T22:47:26.013Z,91.20
2023-04-05T22:49:53.032Z,91.20
2023-04-05T22:52:20.021Z,91.30
2023-04-05T22:54:46.968Z,91.40
2023-04-05T22:57:13.967Z,91.50
2023-04-05T22:59:41.213Z,91.50
2023-04-05T23:02:09.543Z,91.60
2023-04-05T23:04:36.496Z,91.80
2023-04-05T23:07:03.452Z,91.80
2023-04-05T23:09:30.574Z,91.90
2023-04-05T23:11:57.453Z,91.90
2023-04-05T23:14:24.338Z,91.90
2023-04-05T23:16:51.246Z,92.10
2023-04-05T23:19:18.145Z,92.10
2023-04-05T23:21:45.044Z,92.10
2023-04-05T23:24:12.333Z,92.10
2023-04-05T23:26:39.221Z,92.10
2023-04-05T23:29:06.823Z,92.10
2023-04-05T23:31:34.129Z,92.10
2023-04-05T23:34:01.252Z,91.90
2023-04-05T23:36:28.690Z,91.80
2023-04-05T23:38:55.802Z,91.90
2023-04-05T23:41:22.707Z,91.90
2023-04-05T23:43:49.645Z,91.90
2023-04-05T23:46:16.643Z,91.90
2023-04-05T23:48:43.626Z,91.80
2023-04-05T23:51:10.584Z,91.80
2023-04-05T23:53:37.718Z,91.90
2023-04-05T23:56:05.007Z,92.00
2023-04-05T23:58:31.928Z,91.90
